Time;durP1;ratioP1;P1;durP2;ratioP2;P2;SDS_P1;SDS_P2;PMS_P1;PMS_P2;Temp;Humidity;BMP_temperature;BMP_pressure;BME280_temperature;BME280_humidity;BME280_pressure;Samples;Min_cycle;Max_cycle;Signal;HPM_P1;HPM_P2
2022/10/27 00:00:04;;;;;;;24.77;14.57;;;;;;;12.53;100.00;101482.19;4952431;28;20030;-77
2022/10/27 00:02:37;;;;;;;24.77;13.55;;;;;;;12.60;100.00;101487.78;4970207;28;20042;-76
2022/10/27 00:05:03;;;;;;;26.80;15.27;;;;;;;12.58;100.00;101474.53;4951253;28;20046;-77
2022/10/27 00:07:28;;;;;;;27.83;13.90;;;;;;;12.58;100.00;101479.88;4955729;28;20030;-77
2022/10/27 00:09:53;;;;;;;23.23;14.50;;;;;;;12.61;100.00;101476.88;4965814;28;20804;-77
2022/10/27 00:12:19;;;;;;;24.80;14.20;;;;;;;12.63;100.00;101488.28;4969867;28;20459;-77
2022/10/27 00:14:44;;;;;;;29.67;14.73;;;;;;;12.62;100.00;101472.38;4957688;28;20062;-77
2022/10/27 00:17:09;;;;;;;23.17;13.40;;;;;;;12.56;100.00;101473.84;4940265;28;20054;-76
2022/10/27 00:19:35;;;;;;;25.13;15.57;;;;;;;12.67;100.00;101486.97;4974097;28;20035;-77
2022/10/27 00:22:00;;;;;;;29.73;15.40;;;;;;;12.63;100.00;101477.56;4948874;28;20042;-77
2022/10/27 00:24:25;;;;;;;24.47;13.23;;;;;;;12.64;100.00;101481.94;4956176;28;20046;-77
2022/10/27 00:26:51;;;;;;;27.73;14.40;;;;;;;12.68;100.00;101488.63;4951608;28;20142;-77
2022/10/27 00:29:16;;;;;;;27.63;14.77;;;;;;;12.65;100.00;101486.28;4938869;28;20511;-77
2022/10/27 00:31:41;;;;;;;30.83;14.70;;;;;;;12.64;100.00;101483.75;4972763;28;20122;-77
2022/10/27 00:34:07;;;;;;;30.07;14.10;;;;;;;12.61;100.00;101497.47;4954603;28;20405;-78
2022/10/27 00:36:32;;;;;;;25.93;14.43;;;;;;;12.60;100.00;101488.59;4967908;28;20035;-78
2022/10/27 00:38:58;;;;;;;24.93;15.67;;;;;;;12.62;100.00;101501.84;4954386;28;20129;-77
2022/10/27 00:41:30;;;;;;;30.52;13.88;;;;;;;12.59;100.00;101494.94;4976804;28;20023;-77
2022/10/27 00:43:57;;;;;;;20.50;13.82;;;;;;;12.61;100.00;101508.19;4955563;28;20491;-77
2022/10/27 00:46:38;;;;;;;23.77;14.82;;;;;;;12.60;100.00;101507.34;4957969;28;20123;-78
2022/10/27 00:49:12;;;;;;;28.50;15.60;;;;;;;12.59;100.00;101513.69;4969446;28;20049;-77
2022/10/27 00:51:46;;;;;;;28.90;14.00;;;;;;;12.58;100.00;101509.34;4950875;28;20308;-78
2022/10/27 00:54:13;;;;;;;20.63;14.27;;;;;;;12.51;100.00;101504.78;4953761;28;20112;-77
2022/10/27 00:56:40;;;;;;;31.67;15.13;;;;;;;12.42;100.00;101512.75;4953151;28;20049;-78
2022/10/27 00:59:05;;;;;;;28.73;15.25;;;;;;;12.37;100.00;101498.16;4974298;28;20536;-77
2022/10/27 01:01:31;;;;;;;26.30;15.83;;;;;;;12.44;100.00;101520.63;4961993;28;20037;-77
2022/10/27 01:03:57;;;;;;;24.42;16.80;;;;;;;12.42;100.00;101522.63;4957915;28;20057;-78
2022/10/27 01:06:23;;;;;;;29.35;16.35;;;;;;;12.37;100.00;101522.25;4955861;28;20118;-77
2022/10/27 01:08:50;;;;;;;34.17;17.08;;;;;;;12.32;100.00;101520.03;4967102;28;20039;-77
2022/10/27 01:11:15;;;;;;;36.63;18.70;;;;;;;12.29;100.00;101516.81;4968662;28;20033;-77
2022/10/27 01:13:41;;;;;;;33.77;18.67;;;;;;;12.26;100.00;101515.28;4937074;28;20047;-77
2022/10/27 01:16:25;;;;;;;29.92;17.42;;;;;;;12.32;100.00;101529.91;4941721;28;20048;-77
2022/10/27 01:19:02;;;;;;;32.47;19.13;;;;;;;12.34;100.00;101531.44;4940731;28;20074;-77
2022/10/27 01:21:53;;;;;;;38.00;18.40;;;;;;;12.22;100.00;101525.47;4968152;28;20069;-77
2022/10/27 01:24:28;;;;;;;31.77;18.83;;;;;;;12.19;100.00;101538.31;4958421;28;20034;-77
2022/10/27 01:27:00;;;;;;;38.10;19.45;;;;;;;12.20;100.00;101532.00;4967278;28;20041;-77
2022/10/27 01:29:37;;;;;;;31.48;19.13;;;;;;;12.31;100.00;101541.59;4967277;28;20066;-77
2022/10/27 01:32:15;;;;;;;31.77;19.05;;;;;;;12.24;100.00;101547.59;4962655;28;20041;-77
2022/10/27 01:35:13;;;;;;;33.33;19.40;;;;;;;12.20;100.00;101542.69;4949144;28;20532;-77
2022/10/27 01:37:44;;;;;;;33.03;19.20;;;;;;;12.18;100.00;101542.00;4971728;28;20035;-78
2022/10/27 01:40:22;;;;;;;31.77;19.38;;;;;;;12.17;100.00;101541.13;4971283;28;20030;-77
2022/10/27 01:43:15;;;;;;;33.92;20.13;;;;;;;12.20;100.00;101540.84;4965553;28;20078;-77
2022/10/27 01:45:41;;;;;;;33.13;18.98;;;;;;;12.21;100.00;101547.88;4963972;28;20062;-77
2022/10/27 01:48:09;;;;;;;35.97;20.33;;;;;;;12.17;100.00;101546.50;4970817;28;20034;-78
2022/10/27 01:50:38;;;;;;;36.05;19.25;;;;;;;12.05;100.00;101539.69;4968819;28;20165;-78
2022/10/27 01:53:04;;;;;;;39.92;20.00;;;;;;;12.06;100.00;101546.75;4974622;28;20104;-77
2022/10/27 01:55:40;;;;;;;33.47;20.90;;;;;;;12.08;100.00;101536.75;4969752;28;20542;-77
2022/10/27 01:58:12;;;;;;;;;;;;;;;12.12;100.00;101543.44;4955119;28;20118;-77
2022/10/27 02:01:15;;;;;;;40.65;22.08;;;;;;;12.04;100.00;101538.03;4973594;28;19918;-77
2022/10/27 02:04:10;;;;;;;36.17;22.58;;;;;;;12.00;100.00;101536.66;4973858;28;20046;-78
2022/10/27 02:06:44;;;;;;;37.37;22.17;;;;;;;11.92;100.00;101539.25;4965736;23;20059;-88
2022/10/27 02:09:12;;;;;;;39.35;23.40;;;;;;;11.86;100.00;101545.16;4943652;28;20039;-88
2022/10/27 02:11:41;;;;;;;40.45;23.83;;;;;;;11.77;100.00;101558.44;4954581;28;20051;-88
2022/10/27 02:14:07;;;;;;;49.05;25.52;;;;;;;11.69;100.00;101545.00;4953116;28;20086;-88
2022/10/27 02:16:49;;;;;;;36.92;22.30;;;;;;;11.64;100.00;101551.78;4919872;28;20126;-89
2022/10/27 02:19:20;;;;;;;37.80;22.42;;;;;;;11.43;100.00;101544.03;4943389;28;20069;-89
2022/10/27 02:21:48;;;;;;;38.13;22.25;;;;;;;11.43;100.00;101547.53;4939278;28;20062;-89
2022/10/27 02:24:13;;;;;;;45.45;25.60;;;;;;;11.59;100.00;101562.94;4948075;29;20055;-89
2022/10/27 02:26:50;;;;;;;48.92;24.48;;;;;;;11.71;100.00;101574.28;4954390;28;20090;-89
2022/10/27 02:29:28;;;;;;;41.10;23.33;;;;;;;11.67;100.00;101578.22;4937718;29;20062;-88
2022/10/27 02:31:56;;;;;;;44.58;26.02;;;;;;;11.73;100.00;101582.97;4972274;28;20050;-89
2022/10/27 02:34:24;;;;;;;44.90;26.13;;;;;;;11.76;100.00;101591.56;4949545;28;20035;-88
2022/10/27 02:36:49;;;;;;;46.58;28.38;;;;;;;11.73;100.00;101591.84;4938101;28;20821;-89
2022/10/27 02:39:14;;;;;;;52.27;25.50;;;;;;;11.55;100.00;101581.09;4948316;29;20050;-89
2022/10/27 02:41:40;;;;;;;52.37;26.70;;;;;;;11.58;100.00;101586.16;4949241;28;20044;-89
2022/10/27 02:44:05;;;;;;;44.23;25.27;;;;;;;11.62;100.00;101594.72;4947003;28;20045;-89
2022/10/27 02:46:30;;;;;;;52.00;26.50;;;;;;;11.66;100.00;101587.22;4952963;28;20488;-88
2022/10/27 02:48:56;;;;;;;45.77;26.50;;;;;;;11.70;100.00;101600.16;4952978;28;20030;-89
2022/10/27 02:51:21;;;;;;;57.10;26.47;;;;;;;11.62;100.00;101606.25;4949695;29;20035;-88
2022/10/27 02:53:46;;;;;;;45.60;26.17;;;;;;;11.62;100.00;101600.09;4970207;28;20048;-88
2022/10/27 02:56:12;;;;;;;48.33;25.70;;;;;;;11.64;100.00;101606.13;4953160;28;20122;-88
2022/10/27 02:58:37;;;;;;;51.10;28.43;;;;;;;11.63;100.00;101607.09;4954001;28;20090;-88
2022/10/27 03:01:03;;;;;;;57.53;27.33;;;;;;;11.56;100.00;101616.72;4949600;28;20027;-88
2022/10/27 03:03:28;;;;;;;43.80;26.47;;;;;;;11.60;100.00;101613.59;4952921;28;20049;-88
2022/10/27 03:05:54;;;;;;;50.17;27.90;;;;;;;11.55;100.00;101615.88;4952581;28;20897;-88
2022/10/27 03:08:19;;;;;;;46.73;26.63;;;;;;;11.57;100.00;101618.41;4951456;28;20533;-89
2022/10/27 03:10:44;;;;;;;55.20;29.43;;;;;;;11.58;100.00;101620.91;4952887;28;20032;-89
2022/10/27 03:13:10;;;;;;;54.80;28.63;;;;;;;11.57;100.00;101623.75;4947107;28;20437;-89
2022/10/27 03:15:36;;;;;;;57.93;27.87;;;;;;;11.50;100.00;101626.16;4950909;28;20038;-88
2022/10/27 03:18:01;;;;;;;61.67;29.95;;;;;;;11.52;100.00;101616.19;4954402;28;20290;-88
2022/10/27 03:20:26;;;;;;;67.63;30.33;;;;;;;11.61;100.00;101615.28;4958978;28;20034;-89
2022/10/27 03:22:52;;;;;;;52.37;29.23;;;;;;;11.64;100.00;101632.88;4965017;28;20496;-88
2022/10/27 03:25:17;;;;;;;53.30;31.30;;;;;;;11.60;100.00;101623.44;4944887;28;20809;-88
2022/10/27 03:27:44;;;;;;;53.70;31.40;;;;;;;11.54;100.00;101627.56;4936892;28;20039;-88
2022/10/27 03:30:10;;;;;;;;;;;;;;;11.46;100.00;101630.13;4943273;28;20047;-89
2022/10/27 03:32:36;;;;;;;57.45;30.10;;;;;;;11.48;100.00;101629.97;4949837;28;19922;-89
2022/10/27 03:35:01;;;;;;;59.73;32.63;;;;;;;11.44;100.00;101624.06;4945273;29;20042;-89
2022/10/27 03:37:27;;;;;;;61.53;30.90;;;;;;;11.39;100.00;101621.84;4952345;28;20031;-88
2022/10/27 03:39:52;;;;;;;55.67;29.87;;;;;;;11.43;100.00;101626.91;4968017;28;20050;-88
2022/10/27 03:42:17;;;;;;;52.40;30.70;;;;;;;11.45;100.00;101632.94;4947108;29;20039;-88
2022/10/27 03:44:43;;;;;;;56.43;31.77;;;;;;;11.44;100.00;101628.59;4952718;28;20042;-89
2022/10/27 03:47:09;;;;;;;53.00;30.17;;;;;;;11.36;100.00;101629.31;4945971;29;20082;-89
2022/10/27 03:49:34;;;;;;;56.22;32.92;;;;;;;11.32;100.00;101627.94;4946164;28;20031;-90
2022/10/27 03:51:59;;;;;;;62.73;31.30;;;;;;;11.22;100.00;101622.63;4940149;28;20045;-89
2022/10/27 03:54:28;;;;;;;58.70;32.33;;;;;;;11.34;100.00;101639.31;4940258;29;20027;-88
2022/10/27 03:56:54;;;;;;;62.70;31.63;;;;;;;11.19;100.00;101625.56;4941297;28;20034;-89
2022/10/27 03:59:19;;;;;;;62.70;32.20;;;;;;;11.25;100.00;101640.19;4942919;28;20464;-89
2022/10/27 04:01:44;;;;;;;58.10;30.60;;;;;;;11.23;100.00;101652.84;4946676;28;20039;-89
2022/10/27 04:04:11;;;;;;;53.13;31.10;;;;;;;11.16;100.00;101647.25;4948515;28;20043;-89
2022/10/27 04:06:36;;;;;;;55.47;30.85;;;;;;;11.26;100.00;101650.75;4944878;28;20456;-89
2022/10/27 04:09:01;;;;;;;63.17;32.43;;;;;;;11.26;100.00;101647.22;4939870;28;20122;-89
2022/10/27 04:11:27;;;;;;;57.67;32.63;;;;;;;11.19;100.00;101645.13;4951064;28;20050;-88
2022/10/27 04:13:52;;;;;;;63.50;33.27;;;;;;;11.27;100.00;101655.09;4968384;28;20362;-88
2022/10/27 04:16:17;;;;;;;49.50;29.90;;;;;;;11.18;100.00;101647.94;4946609;29;20074;-88
2022/10/27 04:18:43;;;;;;;64.07;33.07;;;;;;;11.18;100.00;101639.91;4951806;28;20053;-88
2022/10/27 04:21:08;;;;;;;56.00;32.00;;;;;;;11.12;100.00;101646.69;4961625;28;20027;-88
2022/10/27 04:23:33;;;;;;;58.07;31.93;;;;;;;11.09;100.00;101646.13;4951738;28;20685;-89
2022/10/27 04:25:59;;;;;;;62.83;34.30;;;;;;;11.09;100.00;101646.13;4970542;28;20124;-88
2022/10/27 04:28:24;;;;;;;63.88;32.80;;;;;;;11.03;100.00;101644.03;4950646;28;20030;-89
2022/10/27 04:30:50;;;;;;;59.57;33.17;;;;;;;11.06;100.00;101643.75;4950050;28;20050;-90
2022/10/27 04:33:15;;;;;;;57.97;32.10;;;;;;;11.05;100.00;101644.72;4945921;29;20039;-89
2022/10/27 04:35:41;;;;;;;59.75;33.80;;;;;;;11.08;100.00;101649.81;4950949;28;20031;-88
2022/10/27 04:38:07;;;;;;;65.03;32.95;;;;;;;11.12;100.00;101635.13;4944571;29;20031;-88
2022/10/27 04:40:32;;;;;;;62.83;34.78;;;;;;;11.12;100.00;101645.84;4959202;28;20034;-89
2022/10/27 04:42:58;;;;;;;63.37;32.87;;;;;;;11.14;100.00;101641.19;4942643;28;20488;-88
2022/10/27 04:45:23;;;;;;;58.17;32.83;;;;;;;11.17;100.00;101646.28;4953610;28;20748;-89
2022/10/27 04:47:49;;;;;;;68.28;33.10;;;;;;;11.16;100.00;101645.41;4949126;28;20140;-88
2022/10/27 04:50:15;;;;;;;61.08;31.38;;;;;;;11.09;100.00;101646.97;4958269;28;20023;-89
2022/10/27 04:52:41;;;;;;;;;;;;;;;11.12;100.00;101651.19;4934941;28;20040;-89
2022/10/27 04:55:07;;;;;;;;;;;;;;;11.16;100.00;101657.94;4949688;28;20014;-88
2022/10/27 04:57:33;;;;;;;57.20;31.02;;;;;;;11.08;100.00;101649.81;4934995;28;19965;-89
2022/10/27 04:59:58;;;;;;;63.92;34.72;;;;;;;11.09;100.00;101654.16;4919037;29;20027;-88
2022/10/27 05:02:23;;;;;;;60.13;33.27;;;;;;;11.05;100.00;101648.25;4946794;29;20020;-89
2022/10/27 05:04:49;;;;;;;59.00;32.30;;;;;;;11.08;100.00;101660.50;4949017;28;20512;-89
2022/10/27 05:07:14;;;;;;;58.57;32.17;;;;;;;11.08;100.00;101669.34;4953761;28;20102;-89
2022/10/27 05:09:39;;;;;;;65.67;31.93;;;;;;;11.11;100.00;101660.19;4969855;28;20039;-89
2022/10/27 05:12:05;;;;;;;61.30;31.93;;;;;;;11.18;100.00;101661.31;4953639;28;20033;-89
2022/10/27 05:14:30;;;;;;;55.60;30.23;;;;;;;11.13;100.00;101663.56;4968720;28;20034;-88
2022/10/27 05:16:55;;;;;;;60.87;33.00;;;;;;;11.10;100.00;101650.50;4934103;29;20031;-88
2022/10/27 05:19:21;;;;;;;60.73;30.50;;;;;;;11.13;100.00;101658.22;4950609;28;20045;-88
2022/10/27 05:21:46;;;;;;;64.60;32.67;;;;;;;11.09;100.00;101667.50;4946240;28;20067;-88
2022/10/27 05:24:11;;;;;;;60.93;32.33;;;;;;;11.07;100.00;101664.13;4947812;28;20026;-88
2022/10/27 05:26:37;;;;;;;56.73;31.07;;;;;;;11.10;100.00;101669.22;4953416;28;20384;-87
2022/10/27 05:29:02;;;;;;;58.73;30.37;;;;;;;11.10;100.00;101669.22;4950451;29;20118;-88
2022/10/27 05:31:29;;;;;;;56.77;30.20;;;;;;;11.15;100.00;101661.59;4962539;28;20058;-89
2022/10/27 05:33:55;;;;;;;53.50;32.35;;;;;;;11.13;100.00;101660.91;4953395;28;20117;-89
2022/10/27 05:36:20;;;;;;;55.40;32.60;;;;;;;11.19;100.00;101662.97;4950140;28;20110;-88
2022/10/27 05:38:46;;;;;;;59.07;31.70;;;;;;;11.16;100.00;101655.25;4950426;28;20062;-88
2022/10/27 05:41:11;;;;;;;60.50;31.37;;;;;;;11.18;100.00;101669.31;4951069;28;20047;-88
2022/10/27 05:43:37;;;;;;;60.93;30.47;;;;;;;11.09;100.00;101656.81;4967781;28;20066;-88
2022/10/27 05:46:03;;;;;;;62.72;31.15;;;;;;;11.07;100.00;101664.97;4953378;28;20286;-89
2022/10/27 05:48:29;;;;;;;52.72;27.77;;;;;;;11.01;100.00;101673.56;4971066;28;20097;-89
2022/10/27 05:50:54;;;;;;;55.03;29.80;;;;;;;10.95;100.00;101661.63;4949458;28;20102;-89
2022/10/27 05:53:20;;;;;;;54.33;28.03;;;;;;;11.02;100.00;101666.41;4945648;28;20071;-88
2022/10/27 05:55:46;;;;;;;;;;;;;;;10.92;100.00;101675.25;4934530;28;20535;-89
2022/10/27 05:58:11;;;;;;;;;;;;;;;10.87;100.00;101676.69;4957704;28;19965;-89
2022/10/27 06:00:38;;;;;;;62.20;29.00;;;;;;;10.89;100.00;101672.88;4969508;28;20005;-88
2022/10/27 06:03:06;;;;;;;58.80;30.23;;;;;;;10.90;100.00;101669.22;4963209;28;20448;-88
2022/10/27 06:05:35;;;;;;;60.72;30.23;;;;;;;10.90;100.00;101684.41;4917844;28;20023;-89
2022/10/27 06:08:00;;;;;;;65.55;30.35;;;;;;;10.83;100.00;101681.47;4926611;29;20074;-89
2022/10/27 06:10:28;;;;;;;64.60;29.30;;;;;;;10.84;100.00;101685.84;4952668;28;20031;-89
2022/10/27 06:12:59;;;;;;;69.53;32.95;;;;;;;10.75;100.00;101686.69;4944906;28;20030;-88
2022/10/27 06:15:25;;;;;;;59.50;29.35;;;;;;;10.73;100.00;101692.16;4951712;28;20047;-88
2022/10/27 06:17:52;;;;;;;58.80;31.27;;;;;;;10.78;100.00;101697.91;4949436;28;20043;-87
2022/10/27 06:20:17;;;;;;;;;;;;;;;10.77;100.00;101695.41;4958706;28;20034;-88
2022/10/27 06:22:44;;;;;;;;;;;;;;;10.79;100.00;101698.75;4964924;28;20403;-88
2022/10/27 06:25:10;;;;;;;60.42;29.10;;;;;;;10.73;100.00;101693.97;4940362;23;19927;-73
2022/10/27 06:27:35;;;;;;;63.13;30.77;;;;;;;10.65;100.00;101694.69;4944436;28;20475;-73
2022/10/27 06:30:00;;;;;;;67.30;34.13;;;;;;;10.64;100.00;101695.66;4945931;29;20377;-73
2022/10/27 06:32:26;;;;;;;56.38;30.63;;;;;;;10.64;100.00;101694.81;4946519;29;20329;-74
2022/10/27 06:34:51;;;;;;;64.03;31.03;;;;;;;10.66;100.00;101698.19;4910652;29;20044;-73
2022/10/27 06:37:16;;;;;;;65.17;30.70;;;;;;;10.68;100.00;101698.91;4935975;29;20043;-73
2022/10/27 06:39:42;;;;;;;62.17;30.83;;;;;;;10.68;100.00;101701.56;4942066;29;20482;-74
2022/10/27 06:42:07;;;;;;;66.17;32.23;;;;;;;10.72;100.00;101702.97;4930404;29;20691;-73
2022/10/27 06:44:32;;;;;;;67.73;30.73;;;;;;;10.77;100.00;101708.75;4927455;29;20043;-73
2022/10/27 06:46:58;;;;;;;63.43;32.83;;;;;;;10.81;100.00;101711.97;4927269;29;20035;-73
2022/10/27 06:49:23;;;;;;;61.67;31.80;;;;;;;10.87;100.00;101709.59;4934280;29;20027;-73
2022/10/27 06:51:48;;;;;;;63.03;32.77;;;;;;;10.90;100.00;101711.97;4927728;29;20028;-73
2022/10/27 06:54:14;;;;;;;61.83;31.50;;;;;;;10.96;100.00;101715.91;4927889;29;20211;-73
2022/10/27 06:56:39;;;;;;;60.10;30.57;;;;;;;10.99;100.00;101720.97;4936906;29;20126;-72
2022/10/27 06:59:04;;;;;;;51.70;29.37;;;;;;;11.05;100.00;101724.88;4927828;29;20126;-73
2022/10/27 07:01:30;;;;;;;63.73;30.53;;;;;;;11.11;100.00;101729.69;4927659;29;20070;-73
2022/10/27 07:03:57;;;;;;;51.92;29.50;;;;;;;11.14;100.00;101734.72;4946659;28;20054;-73
2022/10/27 07:06:23;;;;;;;61.05;30.00;;;;;;;11.11;100.00;101727.00;4943709;29;20031;-73
2022/10/27 07:08:48;;;;;;;58.97;28.85;;;;;;;11.20;100.00;101728.84;4914003;29;20579;-73
2022/10/27 07:11:14;;;;;;;51.00;27.15;;;;;;;11.25;100.00;101734.59;4938913;29;20023;-73
2022/10/27 07:13:39;;;;;;;59.55;29.13;;;;;;;11.26;100.00;101736.28;4930955;29;20433;-73
2022/10/27 07:16:05;;;;;;;52.03;29.47;;;;;;;11.26;100.00;101738.97;4930413;29;20450;-73
2022/10/27 07:18:32;;;;;;;49.10;25.85;;;;;;;11.33;100.00;101740.06;4917754;29;20035;-73
2022/10/27 07:20:57;;;;;;;53.95;28.10;;;;;;;11.36;100.00;101731.75;4930948;29;20485;-73
2022/10/27 07:23:22;;;;;;;48.90;27.07;;;;;;;11.41;100.00;101726.81;4940538;29;20027;-73
2022/10/27 07:25:48;;;;;;;49.30;26.67;;;;;;;11.53;100.00;101727.50;4937875;29;20225;-73
2022/10/27 07:28:14;;;;;;;41.22;23.98;;;;;;;11.67;100.00;101744.06;4930940;29;20219;-73
2022/10/27 07:30:43;;;;;;;44.27;25.50;;;;;;;11.73;100.00;101747.03;4937536;29;20043;-73
2022/10/27 07:33:10;;;;;;;39.40;22.15;;;;;;;11.76;100.00;101752.06;4930761;29;20043;-73
2022/10/27 07:35:36;;;;;;;40.03;23.08;;;;;;;11.97;100.00;101745.69;4929137;29;20047;-73
2022/10/27 07:38:02;;;;;;;40.15;21.20;;;;;;;12.05;100.00;101748.47;4933399;29;20106;-73
2022/10/27 07:40:27;;;;;;;41.97;22.35;;;;;;;12.05;100.00;101740.44;4924602;29;20036;-72
2022/10/27 07:42:58;;;;;;;36.57;23.27;;;;;;;12.08;100.00;101729.44;4932967;29;20589;-73
2022/10/27 07:45:25;;;;;;;35.80;21.10;;;;;;;12.19;100.00;101729.22;4942799;29;20031;-73
2022/10/27 07:47:53;;;;;;;32.78;20.13;;;;;;;12.31;100.00;101731.72;4929296;29;20094;-73
2022/10/27 07:50:22;;;;;;;37.88;21.58;;;;;;;12.29;100.00;101721.16;4930464;29;20028;-73
2022/10/27 07:52:50;;;;;;;29.67;19.92;;;;;;;12.39;100.00;101726.47;4930210;29;20054;-72
2022/10/27 07:55:18;;;;;;;32.17;19.50;;;;;;;12.61;100.00;101723.34;4930381;29;20398;-73
2022/10/27 07:57:44;;;;;;;32.13;18.70;;;;;;;12.91;100.00;101718.59;4942585;29;20035;-73
2022/10/27 08:00:15;;;;;;;40.13;17.80;;;;;;;13.10;100.00;101725.63;4923422;29;20040;-73
2022/10/27 08:02:41;;;;;;;26.98;15.63;;;;;;;13.45;100.00;101727.41;4927513;29;20044;-73
2022/10/27 08:05:07;;;;;;;23.10;13.60;;;;;;;13.87;100.00;101733.88;4929449;29;20029;-73
2022/10/27 08:07:33;;;;;;;;;;;;;;;13.95;100.00;101712.44;4930091;29;20145;-73
2022/10/27 08:09:59;;;;;;;22.88;13.68;;;;;;;14.20;100.00;101713.38;4919086;29;19939;-73
2022/10/27 08:12:24;;;;;;;24.27;14.40;;;;;;;14.40;100.00;101703.19;4920625;29;20090;-73
2022/10/27 08:14:49;;;;;;;21.53;14.50;;;;;;;13.79;100.00;101680.13;4912191;29;20087;-72
2022/10/27 08:17:15;;;;;;;24.83;15.40;;;;;;;13.49;100.00;101688.56;4933041;28;20031;-73
2022/10/27 08:19:40;;;;;;;23.37;14.80;;;;;;;13.52;100.00;101688.22;4930441;29;20075;-73
2022/10/27 08:22:06;;;;;;;26.25;15.65;;;;;;;13.25;100.00;101691.91;4934978;29;20365;-72
2022/10/27 08:24:32;;;;;;;24.60;15.18;;;;;;;13.15;100.00;101687.63;4931232;29;20036;-72
2022/10/27 08:26:57;;;;;;;33.33;16.80;;;;;;;13.04;100.00;101694.94;4934353;29;20166;-72
2022/10/27 08:29:22;;;;;;;26.70;16.07;;;;;;;13.39;100.00;101721.84;4934750;29;20437;-72
2022/10/27 08:31:48;;;;;;;25.10;13.53;;;;;;;13.59;100.00;101717.94;4931977;29;20035;-73
2022/10/27 08:34:13;;;;;;;26.53;14.97;;;;;;;13.92;100.00;101710.91;4930493;29;20142;-73
2022/10/27 08:36:38;;;;;;;20.90;12.87;;;;;;;14.26;100.00;101707.34;4933476;29;20366;-73
2022/10/27 08:39:05;;;;;;;20.53;11.17;;;;;;;14.96;100.00;101701.63;4936883;29;20039;-73
2022/10/27 08:42:05;;;;;;;20.08;11.60;;;;;;;14.84;100.00;101677.91;4935966;29;20474;-73
2022/10/27 08:44:31;;;;;;;19.25;11.73;;;;;;;15.07;100.00;101678.91;4887076;29;20445;-72
2022/10/27 08:47:02;;;;;;;18.50;11.53;;;;;;;14.84;100.00;101664.47;4938581;29;20039;-72
2022/10/27 08:49:37;;;;;;;24.17;12.05;;;;;;;14.03;100.00;101647.19;4932989;29;20032;-72
2022/10/27 08:52:11;;;;;;;25.17;13.07;;;;;;;14.04;100.00;101681.09;4925143;29;20044;-72
2022/10/27 08:54:39;;;;;;;22.75;12.95;;;;;;;14.04;100.00;101697.19;4931123;29;20560;-73
2022/10/27 08:57:05;;;;;;;27.83;12.05;;;;;;;14.39;100.00;101727.53;4931986;29;20463;-73
2022/10/27 08:59:33;;;;;;;;;;;;;;;15.08;100.00;101723.63;4928696;29;20035;-72
2022/10/27 09:02:34;;;;;;;19.33;10.82;;;;;;;15.54;100.00;101686.22;4932164;29;20394;-73
2022/10/27 09:05:27;;;;;;;15.82;10.30;;;;;;;15.54;100.00;101659.31;4863207;29;20058;-73
2022/10/27 09:08:06;;;;;;;19.77;11.82;;;;;;;14.54;100.00;101645.31;4934504;29;20393;-73
2022/10/27 09:10:49;;;;;;;21.00;11.68;;;;;;;14.56;100.00;101678.22;4925801;29;20039;-73
2022/10/27 09:13:35;;;;;;;13.52;9.40;;;;;;;15.28;100.00;101712.53;4928205;29;20564;-73
2022/10/27 09:16:05;;;;;;;17.88;10.18;;;;;;;15.38;100.00;101683.56;4924187;29;20024;-73
2022/10/27 09:18:42;;;;;;;23.08;10.75;;;;;;;14.74;100.00;101680.75;4925869;29;20454;-73
2022/10/27 09:21:26;;;;;;;18.83;10.25;;;;;;;14.55;100.00;101711.47;4927801;29;20067;-72
2022/10/27 09:23:54;;;;;;;23.15;11.75;;;;;;;14.29;100.00;101712.41;4930263;29;20548;-73
2022/10/27 09:26:27;;;;;;;20.83;10.95;;;;;;;14.38;100.00;101747.34;4927611;29;20031;-73
2022/10/27 09:28:53;;;;;;;22.33;10.45;;;;;;;14.50;100.00;101763.00;4917892;29;20317;-73
2022/10/27 09:31:36;;;;;;;19.23;10.23;;;;;;;14.54;100.00;101758.19;4929116;29;20114;-72
2022/10/27 09:34:25;;;;;;;20.05;9.68;;;;;;;14.92;100.00;101767.50;4938048;29;20465;-73
2022/10/27 09:36:51;;;;;;;19.85;9.48;;;;;;;16.15;100.00;101775.41;4932640;28;20050;-73
2022/10/27 09:39:16;;;;;;;13.55;8.75;;;;;;;16.50;100.00;101697.78;4912094;29;20031;-73
2022/10/27 09:41:42;;;;;;;22.87;9.50;;;;;;;16.82;100.00;101634.72;4931780;29;20031;-73
2022/10/27 09:44:19;;;;;;;14.47;8.10;;;;;;;17.18;100.00;101571.13;4931837;29;20054;-73
2022/10/27 09:46:49;;;;;;;14.75;8.38;;;;;;;16.48;100.00;101521.91;4910169;29;20051;-73
2022/10/27 09:49:17;;;;;;;25.40;9.27;;;;;;;16.87;100.00;101551.41;4927904;29;20407;-73
2022/10/27 09:51:48;;;;;;;14.50;7.68;;;;;;;16.81;100.00;101509.00;4912099;29;20058;-73
2022/10/27 09:54:33;;;;;;;14.35;8.02;;;;;;;16.97;100.00;101515.22;4929112;29;20433;-73
2022/10/27 09:57:10;;;;;;;14.50;7.30;;;;;;;17.40;100.00;101524.31;4922811;29;20040;-72
2022/10/27 09:59:36;;;;;;;14.10;6.63;;;;;;;18.20;100.00;101463.06;4934315;29;20067;-72
2022/10/27 10:02:21;;;;;;;17.15;7.22;;;;;;;17.96;100.00;101342.75;4927407;29;20233;-72
2022/10/27 10:04:47;;;;;;;9.80;6.78;;;;;;;18.31;100.00;101342.75;4931274;29;20397;-72
2022/10/27 10:07:34;;;;;;;14.07;5.93;;;;;;;19.17;100.00;101256.53;4927130;29;20035;-72
2022/10/27 10:10:24;;;;;;;12.45;5.28;;;;;;;19.81;100.00;101152.13;4906573;29;20054;-72
2022/10/27 10:13:11;;;;;;;14.23;7.20;;;;;;;20.20;100.00;100990.31;4909182;29;20497;-73
2022/10/27 10:15:46;;;;;;;9.35;4.50;;;;;;;20.38;100.00;100831.47;4929717;29;20049;-73
2022/10/27 10:18:27;;;;;;;12.40;5.28;;;;;;;20.55;100.00;100875.91;4947350;29;20030;-73
2022/10/27 10:21:02;;;;;;;12.07;5.47;;;;;;;19.66;100.00;100923.16;4947329;29;20436;-72
2022/10/27 10:23:32;;;;;;;9.60;5.18;;;;;;;19.89;100.00;101048.06;4924501;29;20035;-73
2022/10/27 10:25:59;;;;;;;10.20;5.45;;;;;;;19.45;100.00;100891.84;4926529;29;20076;-73
2022/10/27 10:28:31;;;;;;;14.32;6.43;;;;;;;17.53;100.00;101035.00;4928120;29;20028;-72
2022/10/27 10:30:57;;;;;;;11.07;5.35;;;;;;;17.87;100.00;101381.72;4927994;29;20031;-73
2022/10/27 10:33:31;;;;;;;10.57;5.40;;;;;;;17.93;100.00;101359.31;4911132;29;20397;-73
2022/10/27 10:35:57;;;;;;;11.02;4.68;;;;;;;18.50;100.00;101379.88;4910645;29;20039;-73
2022/10/27 10:38:22;;;;;;;13.50;7.00;;;;;;;17.93;100.00;101407.94;4928104;29;20039;-73
2022/10/27 10:41:15;;;;;;;15.73;5.57;;;;;;;18.62;100.00;101409.06;4913313;29;20582;-73
2022/10/27 10:43:42;;;;;;;15.00;5.00;;;;;;;18.80;100.00;101306.63;4930522;29;20555;-73
2022/10/27 10:46:20;;;;;;;10.77;4.75;;;;;;;18.88;100.00;101352.41;4931178;29;20027;-73
2022/10/27 10:48:53;;;;;;;8.43;4.88;;;;;;;19.21;100.00;101267.75;4931381;29;20560;-72
2022/10/27 10:51:26;;;;;;;11.63;5.13;;;;;;;18.02;100.00;101217.66;4929959;29;20453;-72
2022/10/27 10:53:59;;;;;;;12.40;4.32;;;;;;;18.63;100.00;101395.31;4914386;29;20048;-73
2022/10/27 10:56:29;;;;;;;7.45;4.35;;;;;;;18.81;100.00;101369.66;4931076;29;20051;-73
2022/10/27 10:59:01;;;;;;;13.55;4.95;;;;;;;18.78;100.00;101376.31;4931105;29;20027;-73
2022/10/27 11:01:51;;;;;;;13.18;5.53;;;;;;;18.60;100.00;101384.91;4931442;29;20062;-73
2022/10/27 11:04:20;;;;;;;13.57;5.38;;;;;;;18.22;100.00;101425.84;4931463;29;20031;-73
2022/10/27 11:07:02;;;;;;;9.30;4.57;;;;;;;18.29;100.00;101466.47;4930055;29;20040;-73
2022/10/27 11:09:35;;;;;;;13.55;4.63;;;;;;;18.42;100.00;101490.88;4931198;29;20036;-73
2022/10/27 11:12:02;;;;;;;9.80;5.43;;;;;;;18.33;100.00;101451.50;4907995;29;20051;-73
2022/10/27 11:14:28;;;;;;;11.23;4.28;;;;;;;18.75;100.00;101374.81;4914330;29;20023;-73